Time;durP1;ratioP1;P1;durP2;ratioP2;P2;SDS_P1;SDS_P2;PMS_P1;PMS_P2;Temp;Humidity;BMP_temperature;BMP_pressure;BME280_temperature;BME280_humidity;BME280_pressure;Samples;Min_cycle;Max_cycle;Signal;HPM_P1;HPM_P2
2023/05/17 00:01:24;;;;;;;12.10;4.10;;;9.00;99.40;;;;;;4959092;28;20031;-82
2023/05/17 00:03:52;;;;;;;15.57;3.70;;;9.00;99.40;;;;;;4974908;28;20058;-82
2023/05/17 00:06:19;;;;;;;13.07;3.60;;;9.00;99.40;;;;;;4975121;28;20023;-83
2023/05/17 00:08:45;;;;;;;14.80;3.43;;;9.00;99.50;;;;;;4974943;28;20047;-82
2023/05/17 00:11:10;;;;;;;10.83;3.40;;;8.90;99.60;;;;;;4974954;28;20039;-81
2023/05/17 00:13:37;;;;;;;13.83;3.83;;;8.90;99.80;;;;;;4975961;28;20065;-80
2023/05/17 00:16:03;;;;;;;15.03;3.17;;;9.00;99.90;;;;;;4974858;28;20027;-81
2023/05/17 00:18:29;;;;;;;12.70;3.43;;;8.90;99.90;;;;;;4975907;28;20480;-82
2023/05/17 00:20:54;;;;;;;17.40;3.87;;;8.90;99.90;;;;;;4976102;28;20065;-82
2023/05/17 00:23:20;;;;;;;18.00;4.43;;;8.90;99.90;;;;;;4974705;28;20107;-83
2023/05/17 00:25:46;;;;;;;14.13;3.43;;;8.80;99.90;;;;;;4974616;28;20475;-81
2023/05/17 00:28:11;;;;;;;13.43;4.70;;;8.80;99.90;;;;;;4975256;28;20031;-82
2023/05/17 00:30:37;;;;;;;15.40;4.97;;;8.90;99.90;;;;;;4974588;28;20027;-84
2023/05/17 00:33:03;;;;;;;11.50;4.17;;;8.80;99.90;;;;;;4974515;28;20027;-81
2023/05/17 00:35:29;;;;;;;22.17;4.67;;;8.80;99.90;;;;;;4975608;28;20085;-83
2023/05/17 00:37:55;;;;;;;16.00;3.93;;;8.80;99.90;;;;;;4958367;28;20019;-83
2023/05/17 00:40:20;;;;;;;15.97;4.37;;;8.80;99.90;;;;;;4974368;28;20488;-83
2023/05/17 00:42:46;;;;;;;13.57;4.50;;;8.80;99.90;;;;;;4975406;28;20026;-84
2023/05/17 00:45:12;;;;;;;12.30;4.40;;;8.70;99.90;;;;;;4958583;28;20030;-84
2023/05/17 00:47:38;;;;;;;18.03;4.60;;;8.70;99.90;;;;;;4975302;28;20110;-83
2023/05/17 00:50:05;;;;;;;14.33;4.37;;;8.70;99.90;;;;;;4974026;28;20023;-83
2023/05/17 00:52:31;;;;;;;18.87;5.27;;;8.70;99.90;;;;;;4974162;28;20031;-82
2023/05/17 00:54:57;;;;;;;17.27;4.20;;;8.70;99.90;;;;;;4974811;28;20121;-80
2023/05/17 00:57:23;;;;;;;19.83;4.93;;;8.70;99.90;;;;;;4991641;28;20046;-82
2023/05/17 00:59:51;;;;;;;19.67;5.03;;;8.80;99.90;;;;;;4994409;28;20085;-82
2023/05/17 01:02:16;;;;;;;19.23;5.10;;;8.70;99.90;;;;;;4993013;28;20394;-81
2023/05/17 01:04:43;;;;;;;17.67;5.60;;;8.70;99.90;;;;;;4993284;28;20030;-82
2023/05/17 01:07:09;;;;;;;19.80;5.17;;;8.70;99.90;;;;;;4994462;28;20062;-81
2023/05/17 01:09:35;;;;;;;21.00;5.60;;;8.70;99.90;;;;;;4960684;28;20042;-79
2023/05/17 01:12:25;;;;;;;17.77;4.87;;;8.70;99.90;;;;;;4993262;28;20495;-81
2023/05/17 01:15:21;;;;;;;16.57;5.13;;;8.70;99.90;;;;;;4993052;28;20038;-81
2023/05/17 01:17:57;;;;;;;20.87;5.53;;;8.70;99.90;;;;;;4992907;28;20037;-82
2023/05/17 01:20:42;;;;;;;24.10;5.90;;;8.70;99.90;;;;;;4992956;28;20037;-80
2023/05/17 01:23:30;;;;;;;23.30;6.33;;;8.70;99.90;;;;;;4994211;28;20028;-81
2023/05/17 01:26:26;;;;;;;19.70;5.43;;;8.70;99.90;;;;;;4994262;28;20352;-81
2023/05/17 01:28:53;;;;;;;16.50;5.50;;;8.70;99.90;;;;;;4992867;28;20081;-81
2023/05/17 01:31:19;;;;;;;22.43;6.30;;;8.70;99.90;;;;;;4992841;28;20085;-82
2023/05/17 01:33:46;;;;;;;21.30;5.07;;;8.70;99.90;;;;;;4994131;28;20141;-80
2023/05/17 01:36:11;;;;;;;16.57;4.77;;;8.70;99.90;;;;;;4994018;28;20076;-80
2023/05/17 01:38:37;;;;;;;22.53;5.70;;;8.70;99.90;;;;;;4992023;28;20125;-82
2023/05/17 01:41:12;;;;;;;20.07;6.33;;;8.70;99.90;;;;;;4992787;28;20040;-79
2023/05/17 01:44:25;;;;;;;19.27;5.90;;;8.70;99.90;;;;;;4993914;28;20482;-82
2023/05/17 01:46:56;;;;;;;18.70;5.60;;;8.70;99.90;;;;;;4983704;28;20034;-80
2023/05/17 01:49:30;;;;;;;22.43;6.00;;;8.70;99.90;;;;;;4993875;28;20483;-79
2023/05/17 01:52:12;;;;;;;21.45;4.95;;;8.70;99.90;;;;;;4993884;28;20034;-82
2023/05/17 01:54:54;;;;;;;17.47;5.83;;;8.70;99.90;;;;;;4993798;28;20027;-81
2023/05/17 01:57:27;;;;;;;15.87;4.80;;;8.70;99.90;;;;;;4992388;28;20053;-82
2023/05/17 01:59:58;;;;;;;19.73;5.23;;;8.80;99.90;;;;;;4993620;28;20471;-80
2023/05/17 02:02:24;;;;;;;19.70;5.67;;;8.80;99.90;;;;;;4992489;28;20027;-81
2023/05/17 02:04:50;;;;;;;16.77;5.87;;;8.80;99.90;;;;;;4992729;28;20022;-81
2023/05/17 02:07:16;;;;;;;15.80;5.20;;;8.80;99.90;;;;;;4976367;28;20076;-81
2023/05/17 02:09:41;;;;;;;18.67;6.03;;;8.80;99.90;;;;;;4993549;28;20125;-80
2023/05/17 02:12:07;;;;;;;21.23;5.70;;;8.90;99.90;;;;;;4992321;28;20038;-81
2023/05/17 02:14:32;;;;;;;22.10;5.47;;;8.90;99.90;;;;;;4992295;28;20580;-82
2023/05/17 02:16:58;;;;;;;22.83;5.50;;;8.90;99.90;;;;;;4992511;28;20085;-81
2023/05/17 02:19:24;;;;;;;17.90;5.70;;;8.90;99.90;;;;;;4993567;28;20038;-83
2023/05/17 02:21:49;;;;;;;26.90;5.57;;;8.90;99.90;;;;;;4992395;28;20050;-81
2023/05/17 02:24:15;;;;;;;14.47;4.53;;;9.00;99.90;;;;;;4992405;28;20027;-82
2023/05/17 02:26:42;;;;;;;19.10;5.83;;;9.00;99.90;;;;;;4993391;28;20073;-82
2023/05/17 02:29:09;;;;;;;13.33;4.90;;;9.10;99.90;;;;;;4992545;28;20084;-82
2023/05/17 02:31:35;;;;;;;18.80;5.40;;;9.10;99.90;;;;;;4992389;28;20411;-82
2023/05/17 02:34:01;;;;;;;18.97;8.13;;;9.10;99.90;;;;;;4993494;28;20038;-83
2023/05/17 02:36:26;;;;;;;23.53;6.03;;;9.10;99.90;;;;;;4992228;28;20095;-82
2023/05/17 02:38:52;;;;;;;22.23;5.50;;;9.20;99.90;;;;;;4992092;28;20033;-80
2023/05/17 02:41:18;;;;;;;28.40;6.60;;;9.20;99.90;;;;;;4993361;28;20080;-80
2023/05/17 02:43:43;;;;;;;17.50;6.37;;;9.20;99.90;;;;;;4993395;28;20153;-80
2023/05/17 02:46:09;;;;;;;25.03;6.63;;;9.20;99.90;;;;;;4992231;28;20034;-81
2023/05/17 02:48:34;;;;;;;19.30;6.73;;;9.30;99.90;;;;;;4976053;28;20037;-82
2023/05/17 02:51:00;;;;;;;16.67;5.87;;;9.40;99.90;;;;;;4993941;28;20034;-80
2023/05/17 02:53:26;;;;;;;29.70;7.37;;;9.40;99.90;;;;;;4995762;28;20034;-82
2023/05/17 02:55:51;;;;;;;22.50;5.80;;;9.40;99.90;;;;;;4979432;28;20062;-80
2023/05/17 02:58:17;;;;;;;18.00;6.50;;;9.50;99.90;;;;;;4979338;28;20033;-81
2023/05/17 03:00:45;;;;;;;18.13;5.67;;;9.50;99.90;;;;;;4995638;28;20069;-81
2023/05/17 03:03:11;;;;;;;23.03;7.90;;;9.50;99.90;;;;;;4979298;28;20114;-79
2023/05/17 03:05:37;;;;;;;18.73;6.53;;;9.50;99.90;;;;;;4996672;28;20054;-81
2023/05/17 03:08:02;;;;;;;20.43;6.53;;;9.60;99.90;;;;;;4962959;28;20023;-82
2023/05/17 03:10:28;;;;;;;18.30;6.77;;;9.60;99.90;;;;;;4995486;28;20091;-82
2023/05/17 03:12:54;;;;;;;17.47;6.17;;;9.50;99.90;;;;;;4996616;28;20038;-83
2023/05/17 03:15:19;;;;;;;18.50;6.43;;;9.50;99.90;;;;;;4995177;28;20483;-81
2023/05/17 03:17:45;;;;;;;17.97;5.70;;;9.50;99.90;;;;;;4979220;28;20061;-83
2023/05/17 03:20:11;;;;;;;16.73;5.93;;;9.50;99.90;;;;;;4962889;28;20034;-83
2023/05/17 03:22:36;;;;;;;14.57;5.53;;;9.60;99.90;;;;;;4978912;28;20022;-80
2023/05/17 03:25:04;;;;;;;17.57;6.37;;;9.60;99.90;;;;;;4996383;28;20392;-83
2023/05/17 03:27:29;;;;;;;23.07;6.13;;;9.60;99.90;;;;;;4996500;28;20470;-83
2023/05/17 03:29:55;;;;;;;19.03;5.87;;;9.60;99.90;;;;;;4978950;28;20058;-82
2023/05/17 03:32:21;;;;;;;18.80;5.97;;;9.60;99.90;;;;;;4978946;28;20117;-84
2023/05/17 03:34:47;;;;;;;20.00;6.47;;;9.60;99.90;;;;;;4988531;28;20161;-84
2023/05/17 03:37:13;;;;;;;23.30;6.57;;;9.60;99.90;;;;;;4961128;28;20113;-83
2023/05/17 03:39:38;;;;;;;22.13;6.77;;;9.70;99.90;;;;;;4977112;28;20029;-84
2023/05/17 03:42:05;;;;;;;17.90;5.47;;;9.60;99.90;;;;;;4977786;28;20025;-84
2023/05/17 03:44:30;;;;;;;14.70;5.63;;;9.70;99.90;;;;;;4995098;28;20030;-84
2023/05/17 03:46:56;;;;;;;17.63;6.00;;;9.70;99.90;;;;;;4994776;28;20356;-84
2023/05/17 03:49:21;;;;;;;15.33;6.27;;;9.70;99.90;;;;;;4995930;28;20045;-84
2023/05/17 03:51:47;;;;;;;15.60;5.40;;;9.70;99.90;;;;;;4978361;28;20390;-83
2023/05/17 03:54:13;;;;;;;16.67;6.07;;;9.60;99.90;;;;;;4962371;28;20033;-84
2023/05/17 03:56:38;;;;;;;22.73;6.33;;;9.60;99.90;;;;;;4978418;28;20032;-84
2023/05/17 03:59:04;;;;;;;17.73;6.00;;;9.60;99.90;;;;;;4978234;28;20030;-82
2023/05/17 04:01:30;;;;;;;17.00;6.37;;;9.70;99.90;;;;;;4995003;28;20034;-85
2023/05/17 04:03:55;;;;;;;16.70;6.17;;;9.60;99.90;;;;;;4994196;28;20372;-84
2023/05/17 04:06:21;;;;;;;15.33;6.47;;;9.60;99.90;;;;;;4978188;28;20033;-84
2023/05/17 04:08:46;;;;;;;15.97;7.10;;;9.60;99.90;;;;;;4978098;28;20197;-84
2023/05/17 04:11:12;;;;;;;21.27;6.10;;;9.60;99.90;;;;;;4995556;28;20027;-83
2023/05/17 04:13:39;;;;;;;18.27;6.30;;;9.60;99.90;;;;;;4994338;28;20027;-84
2023/05/17 04:16:09;;;;;;;15.67;6.00;;;9.60;99.90;;;;;;4978028;28;20022;-82
2023/05/17 04:18:35;;;;;;;18.23;6.07;;;9.60;99.90;;;;;;4994178;28;20114;-82
2023/05/17 04:21:02;;;;;;;21.90;6.50;;;9.60;99.90;;;;;;4993932;28;20022;-82
2023/05/17 04:23:28;;;;;;;14.70;6.90;;;9.60;99.90;;;;;;4978044;28;20023;-82
2023/05/17 04:25:53;;;;;;;19.07;6.17;;;9.60;99.90;;;;;;4992052;28;20023;-82
2023/05/17 04:28:20;;;;;;;21.67;6.63;;;9.60;99.90;;;;;;4978505;28;20483;-82
2023/05/17 04:30:46;;;;;;;20.30;6.93;;;9.50;99.90;;;;;;4983742;28;20037;-82
2023/05/17 04:33:12;;;;;;;14.33;5.63;;;9.60;99.90;;;;;;4997262;28;20112;-84
2023/05/17 04:35:41;;;;;;;17.77;6.23;;;9.50;99.90;;;;;;5013423;28;20077;-82
2023/05/17 04:38:07;;;;;;;16.90;6.33;;;9.50;99.90;;;;;;4988559;28;20506;-81
2023/05/17 04:40:33;;;;;;;20.20;7.03;;;9.50;99.90;;;;;;4971901;28;20470;-81
2023/05/17 04:42:59;;;;;;;16.90;7.67;;;9.50;99.90;;;;;;4984236;28;20085;-82
2023/05/17 04:45:25;;;;;;;19.37;7.37;;;9.50;99.90;;;;;;4981246;28;20561;-74
2023/05/17 04:47:51;;;;;;;22.53;7.17;;;9.50;99.90;;;;;;4990165;28;20560;-75
2023/05/17 04:50:17;;;;;;;22.60;7.47;;;9.50;99.90;;;;;;4976378;28;20038;-75
2023/05/17 04:52:44;;;;;;;16.37;7.10;;;9.50;99.90;;;;;;4985046;28;20023;-75
2023/05/17 04:55:10;;;;;;;20.30;6.53;;;9.50;99.90;;;;;;4980268;28;20025;-75
2023/05/17 04:57:35;;;;;;;17.53;7.27;;;9.50;99.90;;;;;;4999775;28;20031;-75
2023/05/17 05:00:11;;;;;;;22.67;8.50;;;9.50;99.90;;;;;;4974296;28;20026;-75
2023/05/17 05:02:37;;;;;;;16.47;7.33;;;9.40;99.90;;;;;;4973742;28;20031;-75
2023/05/17 05:05:06;;;;;;;16.10;6.27;;;9.50;99.90;;;;;;4989868;28;20023;-75
2023/05/17 05:07:32;;;;;;;20.57;7.40;;;9.50;99.90;;;;;;4989726;28;20027;-75
2023/05/17 05:09:57;;;;;;;20.77;7.37;;;9.50;99.90;;;;;;4973491;28;20373;-75
2023/05/17 05:12:23;;;;;;;21.10;6.90;;;9.50;99.90;;;;;;4973665;28;20089;-74
2023/05/17 05:14:49;;;;;;;22.90;7.63;;;9.50;99.90;;;;;;4974613;28;20110;-75
2023/05/17 05:17:15;;;;;;;17.77;7.77;;;9.50;99.90;;;;;;4973476;28;20715;-74
2023/05/17 05:19:41;;;;;;;20.23;8.20;;;9.50;99.90;;;;;;4979687;28;20035;-73
2023/05/17 05:22:06;;;;;;;22.73;7.40;;;9.50;99.90;;;;;;4988517;28;20383;-73
2023/05/17 05:24:32;;;;;;;21.93;7.27;;;9.60;99.90;;;;;;4973035;28;20037;-74
2023/05/17 05:26:57;;;;;;;18.83;7.40;;;9.60;99.90;;;;;;4973169;28;20387;-74
2023/05/17 05:29:23;;;;;;;22.37;8.00;;;9.60;99.90;;;;;;4974594;28;20027;-73
2023/05/17 05:31:49;;;;;;;23.47;7.47;;;9.60;99.90;;;;;;4989440;28;20027;-72
2023/05/17 05:34:15;;;;;;;26.20;6.70;;;9.60;99.90;;;;;;4974787;28;20089;-73
2023/05/17 05:36:41;;;;;;;22.47;6.57;;;9.60;99.90;;;;;;4974469;28;20023;-73
2023/05/17 05:39:07;;;;;;;12.07;5.83;;;9.60;99.90;;;;;;4974362;28;20031;-73
2023/05/17 05:41:32;;;;;;;14.57;5.90;;;9.50;99.90;;;;;;4974969;28;20039;-73
2023/05/17 05:43:58;;;;;;;21.80;6.50;;;9.70;99.90;;;;;;4989405;28;20026;-73
2023/05/17 05:46:25;;;;;;;15.60;5.37;;;9.70;99.90;;;;;;4974401;28;20109;-73
2023/05/17 05:48:51;;;;;;;20.10;5.60;;;9.70;99.90;;;;;;4974480;28;20027;-73
2023/05/17 05:51:18;;;;;;;19.43;5.20;;;9.80;99.90;;;;;;4974444;28;20035;-73
2023/05/17 05:53:44;;;;;;;21.73;7.03;;;9.80;99.90;;;;;;4974281;28;20041;-75
2023/05/17 05:56:09;;;;;;;17.20;5.50;;;9.80;99.90;;;;;;4974232;28;20530;-73
2023/05/17 05:58:35;;;;;;;13.50;4.97;;;9.80;99.90;;;;;;4974169;28;20034;-73
2023/05/17 06:01:01;;;;;;;18.53;5.27;;;9.90;99.90;;;;;;4972843;28;20031;-74
2023/05/17 06:03:27;;;;;;;15.70;5.20;;;10.00;99.90;;;;;;4972911;28;20027;-73
2023/05/17 06:05:52;;;;;;;19.90;5.17;;;10.10;99.90;;;;;;4974129;28;20035;-73
2023/05/17 06:08:18;;;;;;;19.83;4.53;;;10.20;99.90;;;;;;4974159;28;20105;-73
2023/05/17 06:10:44;;;;;;;16.13;3.33;;;10.30;99.90;;;;;;4989331;28;20026;-74
2023/05/17 06:13:10;;;;;;;15.77;3.83;;;10.40;99.90;;;;;;4974149;28;20024;-73
2023/05/17 06:15:36;;;;;;;15.20;3.47;;;10.50;99.90;;;;;;4988900;28;20031;-73
2023/05/17 06:18:01;;;;;;;14.67;2.60;;;10.60;99.90;;;;;;4973154;28;20082;-74
2023/05/17 06:20:27;;;;;;;19.07;3.90;;;10.60;99.90;;;;;;4989302;28;20038;-75
2023/05/17 06:22:53;;;;;;;14.90;2.90;;;10.60;99.90;;;;;;4989041;28;20034;-75
2023/05/17 06:25:18;;;;;;;17.23;3.75;;;10.70;99.90;;;;;;4957561;28;20074;-73
2023/05/17 06:27:44;;;;;;;15.97;2.90;;;10.70;99.90;;;;;;4978149;28;20019;-73
2023/05/17 06:30:10;;;;;;;18.03;4.37;;;10.70;99.90;;;;;;4992614;28;20110;-73
2023/05/17 06:32:36;;;;;;;16.42;3.13;;;10.70;99.90;;;;;;4977589;28;20029;-74
2023/05/17 06:35:02;;;;;;;14.20;2.93;;;10.70;99.90;;;;;;4992853;28;20115;-74
2023/05/17 06:37:28;;;;;;;14.15;3.58;;;10.70;99.90;;;;;;4977657;28;20031;-74
2023/05/17 06:40:03;;;;;;;15.17;3.57;;;10.70;99.90;;;;;;4977604;28;20440;-73
2023/05/17 06:42:29;;;;;;;17.93;3.30;;;10.80;99.90;;;;;;4977526;28;20014;-74
2023/05/17 06:44:54;;;;;;;11.30;3.10;;;10.80;99.90;;;;;;4976155;28;20022;-74
2023/05/17 06:47:20;;;;;;;15.00;3.80;;;10.80;99.90;;;;;;4976216;28;20078;-74
2023/05/17 06:49:45;;;;;;;12.60;2.67;;;10.90;99.90;;;;;;4976216;28;20067;-74
2023/05/17 06:52:11;;;;;;;15.95;3.28;;;10.90;99.90;;;;;;4976501;28;20106;-74
2023/05/17 06:54:37;;;;;;;22.00;3.63;;;11.00;99.90;;;;;;4960204;28;20040;-74
2023/05/17 06:57:03;;;;;;;12.77;2.58;;;11.00;99.90;;;;;;4975829;28;20488;-73
2023/05/17 06:59:29;;;;;;;17.80;2.38;;;11.10;99.90;;;;;;4975635;28;20117;-74
2023/05/17 07:01:55;;;;;;;15.40;2.72;;;11.20;99.90;;;;;;4976007;28;20106;-74
2023/05/17 07:04:21;;;;;;;8.30;2.38;;;11.30;99.90;;;;;;4977139;28;20093;-73
2023/05/17 07:06:47;;;;;;;12.23;2.22;;;11.40;99.90;;;;;;4976873;28;20054;-75
2023/05/17 07:09:12;;;;;;;11.65;2.00;;;11.50;99.90;;;;;;4976752;28;20058;-74
2023/05/17 07:11:38;;;;;;;11.80;1.90;;;11.70;99.90;;;;;;4959538;28;20027;-74
2023/05/17 07:14:03;;;;;;;8.98;1.55;;;11.80;99.90;;;;;;4976179;28;20027;-74
2023/05/17 07:16:29;;;;;;;12.18;1.73;;;11.90;99.60;;;;;;4976990;28;20113;-74
2023/05/17 07:18:55;;;;;;;10.60;1.48;;;12.00;99.10;;;;;;4975361;28;20133;-73
2023/05/17 07:21:22;;;;;;;11.40;1.80;;;12.10;98.70;;;;;;4975168;28;20030;-74
2023/05/17 07:23:49;;;;;;;16.95;2.35;;;12.10;98.00;;;;;;4975224;28;20026;-73
2023/05/17 07:26:14;;;;;;;15.68;2.10;;;12.10;97.70;;;;;;4975825;28;20030;-73
2023/05/17 07:28:40;;;;;;;13.18;1.58;;;12.10;97.50;;;;;;4991585;28;20030;-74
2023/05/17 07:31:06;;;;;;;11.07;1.60;;;12.20;97.20;;;;;;4975429;28;20031;-74
2023/05/17 07:33:31;;;;;;;12.85;1.75;;;12.30;96.40;;;;;;4991416;28;20333;-74
2023/05/17 07:35:57;;;;;;;8.18;1.30;;;12.20;95.80;;;;;;4991522;28;20023;-74
2023/05/17 07:38:23;;;;;;;11.18;1.70;;;12.30;96.00;;;;;;4991127;28;20045;-73
2023/05/17 07:40:49;;;;;;;8.38;2.10;;;12.30;95.70;;;;;;4991214;28;20042;-74
2023/05/17 07:43:15;;;;;;;15.55;1.63;;;12.30;95.00;;;;;;4976538;28;20027;-73
2023/05/17 07:45:42;;;;;;;9.75;1.30;;;12.30;94.20;;;;;;4991509;28;20038;-74
2023/05/17 07:48:08;;;;;;;11.43;1.65;;;12.30;94.30;;;;;;4991387;28;20033;-75
2023/05/17 07:50:33;;;;;;;9.40;1.25;;;12.30;93.80;;;;;;4991617;28;20121;-75
2023/05/17 07:52:59;;;;;;;12.10;1.42;;;12.20;93.30;;;;;;4975361;28;20085;-75
2023/05/17 07:55:25;;;;;;;11.80;1.50;;;12.30;93.60;;;;;;4976353;28;20484;-75
2023/05/17 07:57:51;;;;;;;13.57;1.70;;;12.30;93.30;;;;;;4975682;28;20030;-73
2023/05/17 08:00:18;;;;;;;16.75;2.10;;;12.40;93.00;;;;;;4991024;28;20026;-74
2023/05/17 08:02:47;;;;;;;13.10;1.80;;;12.40;92.80;;;;;;4974978;28;20443;-74
2023/05/17 08:05:12;;;;;;;9.55;1.02;;;12.40;92.70;;;;;;4976399;28;20023;-74
2023/05/17 08:07:38;;;;;;;10.02;1.80;;;12.50;92.60;;;;;;4974751;28;20129;-75
2023/05/17 08:10:05;;;;;;;6.78;1.90;;;12.50;92.40;;;;;;4974689;28;20078;-75
2023/05/17 08:12:30;;;;;;;13.18;1.75;;;12.50;92.00;;;;;;4974772;28;20035;-74
2023/05/17 08:14:56;;;;;;;5.25;1.10;;;12.40;91.90;;;;;;4990987;28;20443;-74
2023/05/17 08:17:21;;;;;;;11.50;1.60;;;12.40;91.90;;;;;;4975898;28;20110;-75
2023/05/17 08:19:47;;;;;;;8.65;2.17;;;12.40;91.60;;;;;;4990885;28;20054;-74
2023/05/17 08:22:14;;;;;;;9.48;1.70;;;12.50;91.80;;;;;;4990937;28;20488;-75
2023/05/17 08:24:39;;;;;;;10.57;1.27;;;12.50;91.40;;;;;;4974581;28;20027;-75
2023/05/17 08:27:05;;;;;;;7.25;0.98;;;12.70;91.60;;;;;;4974453;28;20081;-74
2023/05/17 08:29:30;;;;;;;9.63;0.90;;;12.70;90.90;;;;;;4974473;28;20077;-75
2023/05/17 08:31:56;;;;;;;11.60;1.20;;;12.80;90.20;;;;;;4990691;28;20038;-75
2023/05/17 08:34:22;;;;;;;9.50;1.08;;;12.80;90.20;;;;;;4975950;28;20030;-75
2023/05/17 08:36:47;;;;;;;7.22;1.33;;;12.80;89.70;;;;;;4974263;28;20123;-75
2023/05/17 08:39:14;;;;;;;9.85;1.10;;;12.80;87.30;;;;;;4975444;28;20034;-77
2023/05/17 08:41:40;;;;;;;6.43;0.82;;;12.80;85.20;;;;;;4974127;28;20031;-74
2023/05/17 08:44:06;;;;;;;12.35;1.10;;;12.80;84.60;;;;;;4974000;28;20026;-74
2023/05/17 08:46:33;;;;;;;4.97;1.00;;;12.80;85.00;;;;;;4974318;28;20031;-73
2023/05/17 08:49:00;;;;;;;8.75;1.10;;;12.90;83.70;;;;;;4973552;28;20591;-74
2023/05/17 08:51:27;;;;;;;9.27;1.05;;;13.10;84.80;;;;;;4990075;28;20039;-74
2023/05/17 08:53:54;;;;;;;9.02;1.00;;;13.20;82.90;;;;;;4975205;28;20058;-74
2023/05/17 08:56:20;;;;;;;6.25;0.68;;;13.20;82.80;;;;;;4975119;28;20027;-75
2023/05/17 08:58:55;;;;;;;9.05;1.27;;;13.40;82.60;;;;;;4973851;28;20050;-75
2023/05/17 09:01:21;;;;;;;5.25;0.70;;;13.50;82.50;;;;;;4990255;28;20109;-75
2023/05/17 09:03:48;;;;;;;5.53;0.80;;;13.70;81.00;;;;;;4975033;28;20023;-76
2023/05/17 09:06:17;;;;;;;9.18;1.00;;;13.90;80.00;;;;;;4975372;28;20484;-74
2023/05/17 09:08:43;;;;;;;5.53;0.93;;;14.00;78.20;;;;;;4974726;28;20058;-75
2023/05/17 09:11:09;;;;;;;6.88;0.80;;;14.00;76.70;;;;;;4973815;28;20035;-74
2023/05/17 09:13:35;;;;;;;8.35;1.10;;;14.00;75.20;;;;;;4989906;28;20035;-75
2023/05/17 09:16:01;;;;;;;4.68;0.90;;;14.00;74.60;;;;;;4989795;28;20023;-75
2023/05/17 09:18:31;;;;;;;6.18;0.98;;;14.10;74.70;;;;;;4973760;28;20051;-75
2023/05/17 09:21:08;;;;;;;9.07;0.70;;;14.20;75.20;;;;;;4973488;28;20019;-75
2023/05/17 09:23:37;;;;;;;5.63;0.88;;;14.30;74.90;;;;;;4974087;28;20023;-75
2023/05/17 09:26:05;;;;;;;8.25;1.13;;;14.40;74.30;;;;;;4989234;28;20476;-77
2023/05/17 09:32:16;;;;;;;4.60;0.43;;;14.60;72.30;;;;;;4959952;28;20038;-79
2023/05/17 09:34:45;;;;;;;3.95;0.70;;;14.70;72.10;;;;;;4974711;28;20102;-77
2023/05/17 09:37:16;;;;;;;6.88;0.90;;;14.80;71.60;;;;;;4974655;28;20030;-79
2023/05/17 09:39:43;;;;;;;6.97;1.08;;;15.00;71.50;;;;;;4973112;28;20435;-78
2023/05/17 09:42:10;;;;;;;7.60;0.90;;;15.00;70.40;;;;;;4989394;28;20027;-78
2023/05/17 09:45:00;;;;;;;9.63;0.98;;;15.10;69.80;;;;;;4973207;28;20035;-79
2023/05/17 09:47:28;;;;;;;4.50;0.93;;;15.10;68.50;;;;;;4973392;28;20042;-80
2023/05/17 09:49:56;;;;;;;6.07;0.68;;;15.20;68.20;;;;;;4972807;28;20030;-78
2023/05/17 09:52:23;;;;;;;8.10;0.70;;;15.20;68.10;;;;;;4973331;28;20026;-78
2023/05/17 09:54:59;;;;;;;5.78;0.75;;;15.40;68.80;;;;;;4972925;28;20030;-81
2023/05/17 09:57:36;;;;;;;6.10;0.77;;;15.60;67.50;;;;;;4977607;28;20019;-77
2023/05/17 10:00:12;;;;;;;2.42;0.47;;;15.70;66.70;;;;;;4974081;28;20434;-78
2023/05/17 10:02:42;;;;;;;6.53;0.57;;;15.80;66.20;;;;;;4977806;28;20023;-76
2023/05/17 10:05:11;;;;;;;7.47;0.93;;;15.80;65.60;;;;;;4977096;28;20071;-77
2023/05/17 10:07:37;;;;;;;5.45;0.60;;;15.70;64.20;;;;;;4978083;28;20368;-78
2023/05/17 10:10:05;;;;;;;4.95;0.65;;;15.70;64.40;;;;;;4976260;28;20089;-79
2023/05/17 10:12:34;;;;;;;5.72;0.70;;;15.70;63.70;;;;;;4976985;28;20113;-81
2023/05/17 10:15:00;;;;;;;7.50;0.70;;;15.70;63.50;;;;;;4960948;28;20514;-79
2023/05/17 10:17:31;;;;;;;8.75;1.17;;;15.60;61.50;;;;;;4976709;28;20457;-77
2023/05/17 10:19:57;;;;;;;7.35;0.60;;;15.60;62.00;;;;;;4977947;28;20039;-79
2023/05/17 10:22:23;;;;;;;4.85;0.63;;;15.60;61.50;;;;;;4960638;28;20122;-79
2023/05/17 10:24:52;;;;;;;3.67;0.60;;;15.60;60.70;;;;;;4976630;28;20102;-81
2023/05/17 10:27:19;;;;;;;6.60;0.70;;;15.60;61.00;;;;;;4961185;28;20033;-79
2023/05/17 10:29:46;;;;;;;5.53;0.77;;;15.80;61.30;;;;;;4976454;28;20030;-78
2023/05/17 10:32:13;;;;;;;3.53;0.70;;;16.00;61.00;;;;;;4979619;28;20034;-79
2023/05/17 10:34:40;;;;;;;4.38;0.75;;;16.30;60.10;;;;;;4979578;28;20027;-79
2023/05/17 10:37:06;;;;;;;8.10;0.93;;;16.70;59.10;;;;;;4963607;28;20026;-79
2023/05/17 10:39:33;;;;;;;4.25;0.82;;;16.90;58.50;;;;;;4995625;28;20022;-78
2023/05/17 10:42:06;;;;;;;6.75;0.93;;;17.10;58.00;;;;;;4979733;28;20089;-78
2023/05/17 10:44:33;;;;;;;5.13;0.80;;;17.30;57.40;;;;;;4995646;28;20079;-80
2023/05/17 10:46:59;;;;;;;3.17;0.50;;;17.70;57.60;;;;;;4979515;28;20029;-77
2023/05/17 10:49:30;;;;;;;4.57;0.73;;;18.10;57.80;;;;;;4995801;28;20398;-77
2023/05/17 10:52:12;;;;;;;4.57;0.70;;;18.70;57.90;;;;;;4995607;28;20106;-79
2023/05/17 10:54:41;;;;;;;2.42;0.55;;;19.50;57.40;;;;;;4997332;28;20386;-78
2023/05/17 10:57:07;;;;;;;5.57;1.05;;;20.00;55.80;;;;;;4996791;28;20026;-81
2023/05/17 10:59:34;;;;;;;4.07;0.50;;;20.60;54.00;;;;;;4979445;28;20041;-81
2023/05/17 11:02:02;;;;;;;5.93;0.77;;;21.00;52.70;;;;;;4996816;28;20499;-79
2023/05/17 11:04:32;;;;;;;3.05;0.57;;;21.50;51.70;;;;;;4995372;28;20031;-82
2023/05/17 11:07:16;;;;;;;4.75;0.50;;;22.00;51.00;;;;;;4995495;28;20022;-79
2023/05/17 11:09:43;;;;;;;3.85;0.82;;;22.70;49.60;;;;;;4996658;28;20055;-79
2023/05/17 11:12:12;;;;;;;7.20;0.90;;;23.30;49.80;;;;;;4978723;28;20034;-80
2023/05/17 11:14:44;;;;;;;4.78;0.75;;;23.90;48.00;;;;;;4995606;28;20547;-80
2023/05/17 11:17:33;;;;;;;5.57;0.60;;;24.40;47.00;;;;;;4995139;28;20084;-83
2023/05/17 11:20:09;;;;;;;4.25;0.77;;;25.00;45.90;;;;;;4995164;28;20034;-81
2023/05/17 11:22:38;;;;;;;6.32;1.02;;;25.50;44.20;;;;;;4987456;28;20058;-80
2023/05/17 11:25:09;;;;;;;4.68;0.98;;;25.70;42.90;;;;;;4986207;28;20467;-80
2023/05/17 11:27:46;;;;;;;5.78;0.70;;;25.90;42.70;;;;;;4985109;28;20023;-80
2023/05/17 11:30:21;;;;;;;3.63;0.70;;;26.20;41.20;;;;;;5002212;28;20498;-79
2023/05/17 11:32:52;;;;;;;4.68;0.60;;;26.50;41.20;;;;;;5004654;28;20038;-83
2023/05/17 11:35:23;;;;;;;7.50;1.35;;;26.60;41.30;;;;;;4989197;28;20034;-80
2023/05/17 11:38:26;;;;;;;3.50;0.70;;;26.60;39.90;;;;;;4989540;28;20364;-81
2023/05/17 11:41:15;;;;;;;7.78;1.05;;;26.70;39.00;;;;;;4990476;28;20034;-80
2023/05/17 11:43:46;;;;;;;4.18;0.75;;;27.00;39.40;;;;;;4992799;28;20375;-81
2023/05/17 11:46:19;;;;;;;6.95;0.80;;;27.20;38.90;;;;;;4988759;28;20029;-82
2023/05/17 11:48:48;;;;;;;6.00;0.98;;;27.30;38.10;;;;;;4985419;28;20031;-82
2023/05/17 11:51:15;;;;;;;4.40;1.17;;;27.50;38.30;;;;;;4987369;28;20023;-82
2023/05/17 11:53:42;;;;;;;4.28;0.95;;;27.90;38.60;;;;;;4981051;28;20030;-83
2023/05/17 11:56:09;;;;;;;6.55;0.80;;;28.20;38.30;;;;;;4976055;28;20055;-80
2023/05/17 11:58:36;;;;;;;4.03;0.90;;;28.20;38.40;;;;;;4980623;28;20018;-76
2023/05/17 12:01:03;;;;;;;2.75;0.60;;;28.10;38.10;;;;;;4995120;28;20039;-79
2023/05/17 12:03:29;;;;;;;6.35;0.95;;;28.10;38.20;;;;;;4993646;28;20035;-80
2023/05/17 12:06:10;;;;;;;3.85;0.70;;;28.00;38.30;;;;;;4994062;28;20053;-84
2023/05/17 12:08:37;;;;;;;4.90;1.00;;;27.90;38.40;;;;;;4985587;28;20042;-81
2023/05/17 12:11:05;;;;;;;4.15;0.70;;;27.80;38.60;;;;;;4984024;28;20022;-82
2023/05/17 12:13:33;;;;;;;3.45;0.57;;;27.70;38.40;;;;;;4990550;28;20019;-82
2023/05/17 12:16:01;;;;;;;5.50;0.75;;;27.60;38.30;;;;;;4982032;28;20033;-82
2023/05/17 12:18:41;;;;;;;4.32;0.57;;;27.50;39.10;;;;;;4978648;28;20082;-81
2023/05/17 12:21:08;;;;;;;3.05;0.80;;;27.40;38.50;;;;;;4975701;28;20027;-84
2023/05/17 12:23:34;;;;;;;7.38;0.80;;;27.40;38.70;;;;;;4973487;28;20388;-76
2023/05/17 12:26:03;;;;;;;2.88;0.70;;;27.30;38.60;;;;;;4975201;28;20023;-80
2023/05/17 12:28:29;;;;;;;4.65;0.90;;;27.20;38.70;;;;;;4973970;28;20051;-77
2023/05/17 12:30:57;;;;;;;6.15;1.02;;;27.20;38.90;;;;;;4975400;28;20549;-78
2023/05/17 12:33:24;;;;;;;5.13;0.80;;;27.20;38.60;;;;;;4974191;28;20023;-79
2023/05/17 12:35:50;;;;;;;6.95;1.15;;;27.30;38.50;;;;;;4990256;28;20097;-78
2023/05/17 12:38:17;;;;;;;4.35;0.73;;;27.40;38.50;;;;;;4973860;28;20023;-79
2023/05/17 12:40:43;;;;;;;6.00;0.82;;;27.50;38.30;;;;;;4973739;28;20035;-81
2023/05/17 12:43:09;;;;;;;4.90;1.17;;;27.50;38.30;;;;;;4974171;28;20371;-77
2023/05/17 12:45:35;;;;;;;6.00;0.80;;;27.60;38.20;;;;;;4973456;28;20031;-80
2023/05/17 12:48:00;;;;;;;6.18;0.90;;;27.70;37.90;;;;;;4975199;28;20031;-83
2023/05/17 12:50:30;;;;;;;6.70;1.00;;;27.80;37.70;;;;;;4978204;28;20038;-82
2023/05/17 12:52:56;;;;;;;4.78;0.93;;;28.00;37.20;;;;;;4985661;28;20026;-83